createdAt,value
2019-02-07T00:01:46.181Z,100860.19
2019-02-07T00:04:15.526Z,100854.13
2019-02-07T00:06:44.743Z,100850.45
2019-02-07T00:09:14.104Z,100845.69
2019-02-07T00:11:43.397Z,100842.81
2019-02-07T00:14:12.622Z,100836.36
2019-02-07T00:16:41.896Z,100839.34
2019-02-07T00:19:11.334Z,100836.85
2019-02-07T00:21:40.538Z,100816.59
2019-02-07T00:24:10.003Z,100830.30
2019-02-07T00:26:40.656Z,100823.44
2019-02-07T00:29:10.041Z,100818.77
2019-02-07T00:31:39.268Z,100812.72
2019-02-07T00:34:08.682Z,100817.98
2019-02-07T00:36:37.883Z,100797.32
2019-02-07T00:39:09.823Z,100800.80
2019-02-07T00:41:40.042Z,100790.06
2019-02-07T00:44:09.252Z,100797.81
2019-02-07T00:46:38.744Z,100792.25
2019-02-07T00:49:07.984Z,100789.77
2019-02-07T00:51:37.175Z,100777.16
2019-02-07T00:54:06.615Z,100772.78
2019-02-07T00:56:36.166Z,100768.12
2019-02-07T00:59:05.585Z,100761.06
2019-02-07T01:01:35.268Z,100767.12
2019-02-07T01:04:04.685Z,100760.67
2019-02-07T01:06:33.898Z,100756.30
2019-02-07T01:09:03.874Z,100756.70
2019-02-07T01:11:33.062Z,100756.60
2019-02-07T01:14:02.400Z,100745.87
2019-02-07T01:16:31.926Z,100743.69
2019-02-07T01:19:01.138Z,100732.07
2019-02-07T01:21:30.352Z,100739.32
2019-02-07T01:23:59.780Z,100738.33
2019-02-07T01:26:29.034Z,100743.49
2019-02-07T01:28:59.269Z,100739.13
2019-02-07T01:31:28.603Z,100737.03
2019-02-07T01:33:57.795Z,100742.20
2019-02-07T01:36:27.029Z,100741.41
2019-02-07T01:38:56.507Z,100746.57
2019-02-07T01:41:25.846Z,100746.17
2019-02-07T01:43:55.055Z,100741.91
2019-02-07T01:46:24.937Z,100741.01
2019-02-07T01:48:54.156Z,100734.16
2019-02-07T01:51:23.365Z,100731.17
2019-02-07T01:53:52.909Z,100741.91
2019-02-07T01:56:22.117Z,100728.50
2019-02-07T01:58:51.335Z,100720.75
2019-02-07T02:01:20.811Z,100720.75
2019-02-07T02:03:50.227Z,100721.15
2019-02-07T02:06:19.439Z,100721.15
2019-02-07T02:08:48.918Z,100716.88
2019-02-07T02:11:18.161Z,100718.16
2019-02-07T02:13:47.393Z,100709.53
2019-02-07T02:16:16.755Z,100711.31
2019-02-07T02:18:45.947Z,100711.71
2019-02-07T02:21:15.148Z,100702.08
2019-02-07T02:23:44.487Z,100704.77
2019-02-07T02:26:13.696Z,100703.97
2019-02-07T02:28:42.887Z,100691.95
2019-02-07T02:31:12.512Z,100695.42
2019-02-07T02:33:41.784Z,100697.51
2019-02-07T02:36:11.012Z,100696.72
2019-02-07T02:38:40.341Z,100703.17
2019-02-07T02:41:09.620Z,100695.72
2019-02-07T02:43:38.828Z,100697.91
2019-02-07T02:46:08.154Z,100691.85
2019-02-07T02:48:37.393Z,100691.55
2019-02-07T02:51:06.581Z,100687.67
2019-02-07T02:53:36.011Z,100679.03
2019-02-07T02:56:06.450Z,100689.27
2019-02-07T02:58:35.710Z,100682.81
2019-02-07T03:01:27.171Z,100684.11
2019-02-07T03:04:18.157Z,100682.52
2019-02-07T03:07:15.514Z,100686.29
2019-02-07T03:10:05.840Z,100674.48
2019-02-07T03:13:03.495Z,100673.68
2019-02-07T03:15:58.155Z,100667.13
2019-02-07T03:18:44.914Z,100666.14
2019-02-07T03:21:32.824Z,100664.36
2019-02-07T03:24:27.509Z,100675.48
2019-02-07T03:27:18.765Z,100661.58
2019-02-07T03:30:13.301Z,100670.52
2019-02-07T03:32:58.585Z,100669.13
2019-02-07T03:35:40.438Z,100659.20
2019-02-07T03:38:27.514Z,100658.31
2019-02-07T03:41:27.792Z,100653.16
2019-02-07T03:44:22.074Z,100657.12
2019-02-07T03:47:25.516Z,100656.63
2019-02-07T03:50:13.750Z,100658.81
2019-02-07T03:53:05.377Z,100658.31
2019-02-07T03:55:41.459Z,100647.59
2019-02-07T03:58:33.164Z,100658.31
2019-02-07T04:01:30.371Z,100654.84
2019-02-07T04:04:24.710Z,100644.11
2019-02-07T04:07:18.006Z,100641.53
2019-02-07T04:10:11.627Z,100643.72
2019-02-07T04:12:52.336Z,100645.11
2019-02-07T04:15:41.162Z,100642.52
2019-02-07T04:18:31.781Z,100644.70
2019-02-07T04:21:26.368Z,100647.48
2019-02-07T04:24:17.960Z,100651.34
2019-02-07T04:27:23.024Z,100645.79
2019-02-07T04:30:08.242Z,100652.73
2019-02-07T04:32:55.102Z,100651.94
2019-02-07T04:35:41.822Z,100637.84
2019-02-07T04:38:33.596Z,100637.44
2019-02-07T04:41:20.484Z,100630.98
2019-02-07T04:44:16.628Z,100636.64
2019-02-07T04:47:04.779Z,100630.28
2019-02-07T04:50:02.390Z,100637.23
2019-02-07T04:52:50.665Z,100629.08
2019-02-07T04:55:38.508Z,100638.22
2019-02-07T04:58:26.651Z,100639.41
2019-02-07T05:01:21.310Z,100629.88
2019-02-07T05:04:01.853Z,100628.38
2019-02-07T05:07:05.279Z,100628.48
2019-02-07T05:10:05.711Z,100627.58
2019-02-07T05:13:06.941Z,100629.27
2019-02-07T05:16:07.153Z,100620.23
2019-02-07T05:18:58.377Z,100621.53
2019-02-07T05:21:43.894Z,100620.84
2019-02-07T05:24:39.166Z,100619.06
2019-02-07T05:27:35.071Z,100613.90
2019-02-07T05:30:23.130Z,100622.04
2019-02-07T05:33:20.425Z,100637.94
2019-02-07T05:36:08.586Z,100643.09
2019-02-07T05:39:01.497Z,100649.25
2019-02-07T05:41:44.007Z,100646.66
2019-02-07T05:44:31.065Z,100653.12
2019-02-07T05:47:11.363Z,100644.17
2019-02-07T05:49:49.384Z,100646.66
2019-02-07T05:52:42.527Z,100648.05
2019-02-07T05:55:42.993Z,100654.11
2019-02-07T05:58:34.584Z,100662.34
2019-02-07T06:01:21.841Z,100652.02
2019-02-07T06:04:23.812Z,100655.80
2019-02-07T06:07:12.169Z,100655.09
2019-02-07T06:10:08.655Z,100662.45
2019-02-07T06:13:08.873Z,100665.62
2019-02-07T06:16:15.449Z,100653.20
2019-02-07T06:19:06.473Z,100642.87
2019-02-07T06:21:55.175Z,100646.84
2019-02-07T06:24:43.353Z,100643.95
2019-02-07T06:27:26.230Z,100638.88
2019-02-07T06:30:08.598Z,100643.34
2019-02-07T06:33:05.874Z,100644.63
2019-02-07T06:36:02.968Z,100644.73
2019-02-07T06:38:51.145Z,100650.87
2019-02-07T06:41:36.265Z,100650.08
2019-02-07T06:44:12.171Z,100656.23
2019-02-07T06:47:01.339Z,100656.23
2019-02-07T06:49:48.489Z,100654.14
2019-02-07T06:52:28.502Z,100659.80
2019-02-07T06:55:24.717Z,100659.50
2019-02-07T06:58:20.979Z,100665.95
2019-02-07T07:01:09.275Z,100672.11
2019-02-07T07:04:08.107Z,100668.82
2019-02-07T07:07:15.073Z,100668.42
2019-02-07T07:10:06.317Z,100665.04
2019-02-07T07:12:54.493Z,100664.73
2019-02-07T07:15:42.638Z,100664.43
2019-02-07T07:18:30.916Z,100666.22
2019-02-07T07:21:25.043Z,100678.34
2019-02-07T07:24:12.378Z,100694.92
2019-02-07T07:26:52.426Z,100698.48
2019-02-07T07:29:45.692Z,100692.22
2019-02-07T07:32:38.397Z,100689.72
2019-02-07T07:35:21.454Z,100691.52
2019-02-07T07:38:15.461Z,100694.59
2019-02-07T07:40:53.820Z,100696.95
2019-02-07T07:43:54.533Z,100707.48
2019-02-07T07:46:52.014Z,100691.88
2019-02-07T07:49:33.894Z,100703.42
2019-02-07T07:52:40.657Z,100708.98
2019-02-07T07:55:31.973Z,100705.91
2019-02-07T07:58:19.417Z,100710.28
2019-02-07T08:01:13.799Z,100713.66
2019-02-07T08:03:58.549Z,100708.09
2019-02-07T08:06:35.136Z,100725.78
2019-02-07T08:09:23.703Z,100708.98
2019-02-07T08:12:14.644Z,100707.70
2019-02-07T08:15:01.912Z,100704.13
2019-02-07T08:17:55.075Z,100704.92
2019-02-07T08:20:49.973Z,100708.00
2019-02-07T08:23:29.334Z,100714.28
2019-02-07T08:26:16.020Z,100720.73
2019-02-07T08:29:16.325Z,100720.24
2019-02-07T08:31:55.975Z,100713.88
2019-02-07T08:34:38.000Z,100725.11
2019-02-07T08:37:24.798Z,100725.81
2019-02-07T08:40:12.018Z,100727.01
2019-02-07T08:43:06.483Z,100727.59
2019-02-07T08:46:13.318Z,100729.88
2019-02-07T08:49:08.530Z,100726.89
2019-02-07T08:51:55.446Z,100721.91
2019-02-07T08:54:42.606Z,100735.14
2019-02-07T08:57:33.859Z,100730.58
2019-02-07T09:00:21.043Z,100729.89
2019-02-07T09:03:07.982Z,100592.55
2019-02-07T09:05:58.655Z,100725.64
2019-02-07T09:08:59.167Z,100735.17
2019-02-07T09:11:50.280Z,100726.64
2019-02-07T09:14:47.446Z,100726.25
2019-02-07T09:17:27.947Z,100734.09
2019-02-07T09:20:22.032Z,100751.87
2019-02-07T09:23:22.951Z,100729.33
2019-02-07T09:26:18.537Z,100725.24
2019-02-07T09:29:16.322Z,100727.62
2019-02-07T09:32:16.605Z,100722.14
2019-02-07T09:35:10.997Z,100720.85
2019-02-07T09:38:20.203Z,100722.33
2019-02-07T09:41:09.901Z,100710.40
2019-02-07T09:44:10.380Z,100711.17
2019-02-07T09:46:55.719Z,100703.20
2019-02-07T09:49:45.349Z,100695.73
2019-02-07T09:52:24.769Z,100698.10
2019-02-07T09:55:12.413Z,100697.61
2019-02-07T09:57:52.016Z,100704.87
2019-02-07T10:00:53.176Z,100711.33
2019-02-07T10:03:55.105Z,100710.66
2019-02-07T10:07:01.895Z,100721.91
2019-02-07T10:09:58.883Z,100718.64
2019-02-07T10:12:46.310Z,100720.14
2019-02-07T10:15:37.503Z,100719.06
2019-02-07T10:18:32.758Z,100724.34
2019-02-07T10:21:11.221Z,100721.48
2019-02-07T10:24:01.951Z,100715.30
2019-02-07T10:26:59.208Z,100714.60
2019-02-07T10:29:46.217Z,100717.70
2019-02-07T10:32:43.577Z,100723.88
2019-02-07T10:35:47.380Z,100723.68
2019-02-07T10:38:47.568Z,100718.72
2019-02-07T10:41:35.542Z,100721.11
2019-02-07T10:44:30.363Z,100713.36
2019-02-07T10:47:20.222Z,100719.52
2019-02-07T10:50:03.919Z,100731.03
2019-02-07T10:52:49.277Z,100724.67
2019-02-07T10:55:45.095Z,100728.63
2019-02-07T10:58:42.158Z,100726.04
2019-02-07T11:01:20.890Z,100737.27
2019-02-07T11:04:06.830Z,100727.54
2019-02-07T11:06:54.249Z,100739.75
2019-02-07T11:10:01.199Z,100744.91
2019-02-07T11:12:49.990Z,100751.16
2019-02-07T11:15:29.022Z,100752.75
2019-02-07T11:18:26.364Z,100755.75
2019-02-07T11:21:14.832Z,100755.95
2019-02-07T11:24:01.895Z,100762.72
2019-02-07T11:27:08.536Z,100761.12
2019-02-07T11:29:55.135Z,100756.95
2019-02-07T11:32:44.382Z,100757.84
2019-02-07T11:35:26.338Z,100748.09
2019-02-07T11:38:10.830Z,100749.86
2019-02-07T11:40:53.402Z,100750.15
2019-02-07T11:43:44.638Z,100749.75
2019-02-07T11:46:26.405Z,100740.91
2019-02-07T11:49:13.468Z,100732.17
2019-02-07T11:52:02.142Z,100739.32
2019-02-07T11:54:56.745Z,100738.02
2019-02-07T11:57:53.677Z,100735.34
2019-02-07T12:00:51.133Z,100735.63
2019-02-07T12:03:42.694Z,100725.17
2019-02-07T12:06:28.121Z,100727.24
2019-02-07T12:09:08.645Z,100720.28
2019-02-07T12:12:01.019Z,100719.11
2019-02-07T12:14:38.577Z,100719.52
2019-02-07T12:17:26.049Z,100716.62
2019-02-07T12:20:07.487Z,100724.35
2019-02-07T12:22:54.859Z,100727.64
2019-02-07T12:25:52.316Z,100726.66
2019-02-07T12:28:37.503Z,100720.20
2019-02-07T12:31:14.502Z,100725.05
2019-02-07T12:34:09.742Z,100724.05
2019-02-07T12:36:46.092Z,100723.34
2019-02-07T12:39:33.255Z,100718.37
2019-02-07T12:42:14.792Z,100720.57
2019-02-07T12:45:03.127Z,100714.20
2019-02-07T12:47:47.797Z,100715.09
2019-02-07T12:50:48.490Z,100708.44
2019-02-07T12:53:42.692Z,100710.23
2019-02-07T12:56:43.330Z,100704.14
2019-02-07T12:59:34.259Z,100697.64
2019-02-07T13:02:34.511Z,100698.31
2019-02-07T13:05:26.950Z,100696.53
2019-02-07T13:08:14.002Z,100681.11
2019-02-07T13:11:07.582Z,100688.19
2019-02-07T13:13:58.405Z,100689.48
2019-02-07T13:16:58.880Z,100685.42
2019-02-07T13:20:05.654Z,100678.47
2019-02-07T13:22:45.218Z,100675.97
2019-02-07T13:25:25.477Z,100672.49
2019-02-07T13:28:13.211Z,100669.52
2019-02-07T13:31:08.946Z,100658.68
2019-02-07T13:33:58.634Z,100657.34
2019-02-07T13:36:36.533Z,100663.91
2019-02-07T13:39:37.591Z,100656.14
2019-02-07T13:42:24.683Z,100655.74
2019-02-07T13:45:13.897Z,100649.46
2019-02-07T13:48:01.637Z,100645.94
2019-02-07T13:50:58.362Z,100632.20
2019-02-07T13:54:05.267Z,100631.50
2019-02-07T13:56:52.244Z,100627.39
2019-02-07T13:59:38.835Z,100622.58
2019-02-07T14:02:37.858Z,100615.34
2019-02-07T14:05:26.089Z,100610.69
2019-02-07T14:08:13.931Z,100606.41
2019-02-07T14:11:01.207Z,100602.53
2019-02-07T14:13:48.627Z,100603.10
2019-02-07T14:16:36.485Z,100598.67
2019-02-07T14:19:37.109Z,100602.09
2019-02-07T14:22:23.196Z,100601.52
2019-02-07T14:25:10.530Z,100606.70
2019-02-07T14:28:02.161Z,100604.11
2019-02-07T14:30:50.465Z,100598.05
2019-02-07T14:33:37.384Z,100595.28
2019-02-07T14:36:37.258Z,100593.91
2019-02-07T14:39:37.367Z,100585.48
2019-02-07T14:42:17.727Z,100588.88
2019-02-07T14:45:08.327Z,100586.60
2019-02-07T14:47:37.778Z,100580.45
2019-02-07T14:50:14.892Z,100576.48
2019-02-07T14:52:39.574Z,100570.42
2019-02-07T14:55:09.757Z,100566.13
2019-02-07T14:57:39.477Z,100573.09
2019-02-07T15:00:13.059Z,100570.59
2019-02-07T15:02:42.610Z,100568.80
2019-02-07T15:05:12.493Z,100570.73
2019-02-07T15:07:43.150Z,100567.34
2019-02-07T15:10:14.391Z,100566.94
2019-02-07T15:12:43.661Z,100561.36
2019-02-07T15:15:14.423Z,100563.63
2019-02-07T15:17:43.678Z,100558.95
2019-02-07T15:20:13.410Z,100558.55
2019-02-07T15:23:08.068Z,100554.27
2019-02-07T15:25:44.063Z,100552.16
2019-02-07T15:28:22.616Z,100543.51
2019-02-07T15:31:00.187Z,100546.59
2019-02-07T15:33:40.660Z,100550.23
2019-02-07T15:36:21.337Z,100543.84
2019-02-07T15:39:03.416Z,100545.23
2019-02-07T15:41:53.486Z,100544.02
2019-02-07T15:44:23.879Z,100540.54
2019-02-07T15:46:53.634Z,100540.45
2019-02-07T15:49:29.657Z,100531.00
2019-02-07T15:51:58.957Z,100535.77
2019-02-07T15:54:29.411Z,100530.19
2019-02-07T15:56:58.614Z,100531.16
2019-02-07T15:59:47.727Z,100529.88
2019-02-07T16:02:55.416Z,100523.08
2019-02-07T16:05:40.848Z,100515.80
2019-02-07T16:08:10.127Z,100514.42
2019-02-07T16:10:44.255Z,100507.55
2019-02-07T16:13:21.494Z,100503.67
2019-02-07T16:15:58.947Z,100505.37
2019-02-07T16:18:31.041Z,100500.20
2019-02-07T16:21:08.066Z,100496.31
2019-02-07T16:23:49.499Z,100490.73
2019-02-07T16:26:22.384Z,100485.55
2019-02-07T16:29:01.719Z,100478.20
2019-02-07T16:31:38.468Z,100481.67
2019-02-07T16:34:15.640Z,100469.55
2019-02-07T16:36:47.668Z,100472.45
2019-02-07T16:39:23.034Z,100462.42
2019-02-07T16:42:05.800Z,100457.08
2019-02-07T16:44:30.541Z,100455.62
2019-02-07T16:47:02.351Z,100454.56
2019-02-07T16:49:35.044Z,100454.00
2019-02-07T16:52:13.657Z,100453.52
2019-02-07T16:54:48.949Z,100455.61
2019-02-07T16:57:22.349Z,100451.56
2019-02-07T16:59:59.933Z,100450.59
2019-02-07T17:02:29.381Z,100448.00
2019-02-07T17:05:00.910Z,100445.82
2019-02-07T17:07:30.337Z,100441.45
2019-02-07T17:10:01.413Z,100428.44
2019-02-07T17:12:38.095Z,100432.31
2019-02-07T17:15:10.786Z,100422.77
2019-02-07T17:17:42.701Z,100427.06
2019-02-07T17:20:29.058Z,100412.03
2019-02-07T17:22:59.023Z,100398.77
2019-02-07T17:25:37.653Z,100396.19
2019-02-07T17:28:10.659Z,100395.78
2019-02-07T17:30:40.034Z,100384.06
2019-02-07T17:33:11.794Z,100387.38
2019-02-07T17:35:43.094Z,100377.83
2019-02-07T17:38:12.309Z,100378.23
2019-02-07T17:40:46.871Z,100370.96
2019-02-07T17:43:19.439Z,100371.45
2019-02-07T17:45:50.468Z,100371.86
2019-02-07T17:48:20.051Z,100365.39
2019-02-07T17:50:49.290Z,100361.02
2019-02-07T17:53:18.775Z,100360.30
2019-02-07T17:55:52.493Z,100351.65
2019-02-07T17:58:25.551Z,100354.72
2019-02-07T18:01:00.918Z,100346.07
2019-02-07T18:03:30.605Z,100333.62
2019-02-07T18:05:59.895Z,100331.52
2019-02-07T18:08:29.889Z,100328.05
2019-02-07T18:10:59.631Z,100320.77
2019-02-07T18:13:31.354Z,100305.58
2019-02-07T18:16:04.458Z,100309.13
2019-02-07T18:18:35.338Z,100304.36
2019-02-07T18:21:07.617Z,100304.77
2019-02-07T18:23:39.365Z,100298.22
2019-02-07T18:26:09.970Z,100296.60
2019-02-07T18:28:39.214Z,100295.63
2019-02-07T18:31:11.578Z,100291.27
2019-02-07T18:33:41.361Z,100287.47
2019-02-07T18:36:13.549Z,100275.34
2019-02-07T18:38:45.776Z,100284.40
2019-02-07T18:41:16.670Z,100128.05
2019-02-07T18:43:49.090Z,100267.59
2019-02-07T18:46:20.125Z,100262.33
2019-02-07T18:48:52.899Z,100256.67
2019-02-07T18:51:22.335Z,100251.02
2019-02-07T18:53:51.672Z,100245.77
2019-02-07T18:56:21.261Z,100244.39
2019-02-07T18:58:51.383Z,100241.73
2019-02-07T19:01:23.168Z,100236.80
2019-02-07T19:03:59.232Z,100226.78
2019-02-07T19:06:30.099Z,100220.33
2019-02-07T19:09:09.533Z,100222.02
2019-02-07T19:11:44.563Z,100225.02
2019-02-07T19:14:24.432Z,100209.90
2019-02-07T19:16:58.377Z,100212.56
2019-02-07T19:19:29.186Z,100214.67
2019-02-07T19:22:00.837Z,100197.38
2019-02-07T19:24:31.904Z,100202.55
2019-02-07T19:27:03.273Z,100187.52
2019-02-07T19:29:33.486Z,100181.45
2019-02-07T19:32:02.865Z,100182.34
2019-02-07T19:34:32.615Z,100178.88
2019-02-07T19:37:05.068Z,100181.94
2019-02-07T19:39:37.285Z,100176.44
2019-02-07T19:42:06.986Z,100173.86
2019-02-07T19:44:39.122Z,100165.77
2019-02-07T19:47:09.452Z,100149.44
2019-02-07T19:49:38.924Z,100156.88
2019-02-07T19:52:09.328Z,100150.08
2019-02-07T19:54:39.906Z,100150.56
2019-02-07T19:57:09.867Z,100147.16
2019-02-07T19:59:39.637Z,100150.23
2019-02-07T20:02:10.113Z,100138.27
2019-02-07T20:04:39.523Z,100137.53
2019-02-07T20:07:12.596Z,100138.34
2019-02-07T20:09:43.030Z,100138.91
2019-02-07T20:12:12.344Z,100141.48
2019-02-07T20:14:45.172Z,100133.72
2019-02-07T20:17:18.189Z,100131.70
2019-02-07T20:19:47.864Z,100121.28
2019-02-07T20:22:20.256Z,100120.87
2019-02-07T20:24:48.658Z,100105.35
2019-02-07T20:27:23.287Z,100097.19
2019-02-07T20:29:55.126Z,100096.78
2019-02-07T20:32:24.544Z,100089.83
2019-02-07T20:34:57.800Z,100100.66
2019-02-07T20:37:27.643Z,100082.95
2019-02-07T20:39:57.035Z,100079.89
2019-02-07T20:42:30.683Z,100070.02
2019-02-07T20:45:08.618Z,100069.14
2019-02-07T20:47:45.035Z,100070.84
2019-02-07T20:50:32.462Z,100067.77
2019-02-07T20:53:05.220Z,100063.89
2019-02-07T20:55:34.630Z,100068.66
2019-02-07T20:58:05.361Z,100053.55
2019-02-07T21:00:38.638Z,100064.37
2019-02-07T21:03:09.478Z,100051.03
2019-02-07T21:05:39.392Z,100043.34
2019-02-07T21:08:11.528Z,100039.88
2019-02-07T21:10:40.961Z,100040.76
2019-02-07T21:13:10.527Z,100045.94
2019-02-07T21:15:39.903Z,100029.94
2019-02-07T21:18:09.498Z,100042.87
2019-02-07T21:20:38.677Z,100028.16
2019-02-07T21:23:08.102Z,100026.39
2019-02-07T21:25:40.595Z,100018.96
2019-02-07T21:28:10.336Z,100018.00
2019-02-07T21:30:39.529Z,100015.82
2019-02-07T21:33:14.455Z,100011.05
2019-02-07T21:35:45.822Z,100010.98
2019-02-07T21:38:19.753Z,100011.88
2019-02-07T21:40:49.039Z,100007.84
2019-02-07T21:43:19.804Z,100010.84
2019-02-07T21:45:53.260Z,100003.82
2019-02-07T21:48:36.120Z,100011.02
2019-02-07T21:51:08.149Z,100007.88
2019-02-07T21:53:38.523Z,100002.89
2019-02-07T21:56:12.896Z,100001.94
2019-02-07T21:58:42.153Z,99997.43
2019-02-07T22:01:24.972Z,100001.64
2019-02-07T22:04:12.107Z,100003.11
2019-02-07T22:06:41.824Z,100009.36
2019-02-07T22:09:13.758Z,99995.72
2019-02-07T22:11:46.118Z,99990.81
2019-02-07T22:14:19.138Z,99985.89
2019-02-07T22:16:51.987Z,99988.25
2019-02-07T22:19:21.927Z,99976.07
2019-02-07T22:21:51.528Z,99969.05
2019-02-07T22:24:22.030Z,99969.05
2019-02-07T22:26:51.992Z,99970.67
2019-02-07T22:29:23.874Z,99976.73
2019-02-07T22:31:54.803Z,99966.32
2019-02-07T22:34:24.107Z,99986.43
2019-02-07T22:36:55.393Z,99969.56
2019-02-07T22:39:25.272Z,99961.73
2019-02-07T22:41:54.455Z,99959.63
2019-02-07T22:44:23.653Z,99963.98
2019-02-07T22:46:55.229Z,99962.37
2019-02-07T22:49:24.422Z,99954.14
2019-02-07T22:51:53.617Z,99964.47
2019-02-07T22:54:23.823Z,99953.17
2019-02-07T22:56:53.131Z,99943.17
2019-02-07T22:59:22.319Z,99940.44
2019-02-07T23:01:55.064Z,99937.38
2019-02-07T23:04:25.379Z,99936.01
2019-02-07T23:06:54.597Z,99933.34
2019-02-07T23:09:24.251Z,99916.56
2019-02-07T23:11:54.035Z,99922.05
2019-02-07T23:14:23.352Z,99916.33
2019-02-07T23:16:53.042Z,99907.22
2019-02-07T23:19:22.248Z,99908.91
2019-02-07T23:21:51.587Z,99907.55
2019-02-07T23:24:20.978Z,99911.42
2019-02-07T23:26:51.072Z,99915.78
2019-02-07T23:29:20.284Z,99922.64
2019-02-07T23:31:49.729Z,99911.75
2019-02-07T23:34:18.952Z,99910.31
2019-02-07T23:36:48.158Z,99902.97
2019-02-07T23:39:17.588Z,99890.05
2019-02-07T23:41:47.143Z,99896.98
2019-02-07T23:44:16.344Z,99904.66
2019-02-07T23:46:45.743Z,99899.83
2019-02-07T23:49:14.952Z,99899.83
2019-02-07T23:51:44.153Z,99883.04
2019-02-07T23:54:13.590Z,99878.69
2019-02-07T23:56:43.281Z,99875.22
2019-02-07T23:59:12.495Z,99873.05
